createdAt,value
2022-10-11T04:02:36.985Z,99.63
2022-10-11T04:05:06.685Z,99.80
2022-10-11T04:07:33.927Z,99.66
2022-10-11T04:10:00.505Z,99.62
2022-10-11T04:12:27.021Z,99.54
2022-10-11T04:14:53.624Z,99.55
2022-10-11T04:17:20.176Z,99.46
2022-10-11T04:19:46.760Z,99.41
2022-10-11T04:22:13.325Z,99.38
2022-10-11T04:24:39.916Z,99.53
2022-10-11T04:27:06.816Z,99.37
2022-10-11T04:29:34.579Z,99.33
2022-10-11T04:32:01.726Z,99.23
2022-10-11T04:34:29.098Z,99.29
2022-10-11T04:36:56.880Z,99.20
2022-10-11T04:39:23.544Z,99.11
2022-10-11T04:41:50.105Z,99.18
2022-10-11T04:44:16.826Z,99.13
2022-10-11T04:46:43.427Z,99.08
2022-10-11T04:49:10.089Z,99.03
2022-10-11T04:51:36.747Z,99.00
2022-10-11T04:54:03.560Z,99.13
2022-10-11T04:56:30.638Z,99.08
2022-10-11T04:58:57.287Z,98.93
2022-10-11T05:01:23.868Z,98.83
2022-10-11T05:03:50.506Z,98.98
2022-10-11T05:06:17.289Z,98.99
2022-10-11T05:08:43.764Z,99.08
2022-10-11T05:11:16.167Z,98.98
2022-10-11T05:13:43.699Z,98.90
2022-10-11T05:16:11.924Z,99.00
2022-10-11T05:18:39.612Z,99.08
2022-10-11T05:21:09.141Z,99.16
2022-10-11T05:23:37.139Z,99.19
2022-10-11T05:26:04.326Z,99.33
2022-10-11T05:28:31.381Z,99.14
2022-10-11T05:30:58.867Z,99.12
2022-10-11T05:33:25.898Z,99.16
2022-10-11T05:35:52.963Z,99.25
2022-10-11T05:38:19.521Z,99.06
2022-10-11T05:40:46.130Z,98.97
2022-10-11T05:43:12.695Z,98.96
2022-10-11T05:45:40.937Z,98.98
2022-10-11T05:48:08.134Z,99.04
2022-10-11T05:50:36.333Z,98.99
2022-10-11T05:53:04.295Z,98.89
2022-10-11T05:55:35.913Z,98.79
2022-10-11T05:58:03.542Z,98.68
2022-10-11T06:00:31.951Z,98.59
2022-10-11T06:03:01.545Z,98.54
2022-10-11T06:05:34.422Z,98.50
2022-10-11T06:08:02.707Z,98.43
2022-10-11T06:10:30.374Z,98.39
2022-10-11T06:12:57.592Z,98.28
2022-10-11T06:15:25.132Z,97.99
2022-10-11T06:17:53.362Z,97.82
2022-10-11T06:20:23.252Z,97.79
2022-10-11T06:22:54.135Z,97.70
2022-10-11T06:25:21.822Z,97.71
2022-10-11T06:27:48.528Z,97.64
2022-10-11T06:30:15.863Z,97.53
2022-10-11T06:32:43.299Z,97.38
2022-10-11T06:35:11.741Z,97.24
2022-10-11T06:37:38.351Z,96.88
2022-10-11T06:40:05.519Z,96.74
2022-10-11T06:42:32.405Z,96.50
2022-10-11T06:44:59.048Z,96.55
2022-10-11T06:47:25.627Z,96.53
2022-10-11T06:49:52.298Z,96.46
2022-10-11T06:52:19.480Z,96.37
2022-10-11T06:54:46.825Z,96.17
2022-10-11T06:57:13.422Z,95.89
2022-10-11T06:59:39.998Z,94.44
2022-10-11T07:02:07.195Z,93.88
2022-10-11T07:04:34.064Z,93.56
2022-10-11T07:07:01.077Z,93.39
2022-10-11T07:09:27.733Z,93.35
2022-10-11T07:11:54.321Z,92.99
2022-10-11T07:14:21.435Z,92.83
2022-10-11T07:16:48.214Z,91.93
2022-10-11T07:19:14.796Z,91.39
2022-10-11T07:21:41.600Z,90.75
2022-10-11T07:24:09.205Z,89.78
2022-10-11T07:26:38.707Z,87.56
2022-10-11T07:29:07.881Z,85.56
2022-10-11T07:31:36.130Z,83.81
2022-10-11T07:34:02.942Z,82.16
2022-10-11T07:36:29.691Z,78.68
2022-10-11T07:38:57.391Z,76.21
2022-10-11T07:41:23.919Z,74.91
2022-10-11T07:43:51.248Z,75.24
2022-10-11T07:46:18.771Z,74.66
2022-10-11T07:48:45.712Z,73.74
2022-10-11T07:51:21.309Z,72.80
2022-10-11T07:53:50.029Z,71.44
2022-10-11T07:56:22.472Z,68.79
2022-10-11T07:58:57.260Z,67.51
2022-10-11T08:01:25.569Z,65.94
2022-10-11T08:03:53.585Z,64.24
2022-10-11T08:06:23.434Z,62.71
2022-10-11T08:08:50.035Z,61.92
2022-10-11T08:11:25.650Z,62.71
2022-10-11T08:13:52.554Z,63.60
2022-10-11T08:16:20.195Z,61.79
2022-10-11T08:18:47.246Z,60.07
2022-10-11T08:21:19.607Z,57.84
2022-10-11T08:23:46.488Z,57.49
2022-10-11T08:26:14.121Z,58.85
2022-10-11T08:28:41.240Z,58.07
2022-10-11T08:31:13.335Z,58.67
2022-10-11T08:33:39.894Z,57.36
2022-10-11T08:36:08.029Z,56.73
2022-10-11T08:38:36.970Z,56.18
2022-10-11T08:41:03.814Z,54.96
2022-10-11T08:43:39.410Z,54.01
2022-10-11T08:46:08.266Z,51.90
2022-10-11T08:48:41.980Z,51.09
2022-10-11T08:51:30.612Z,50.48
2022-10-11T08:54:07.616Z,50.58
2022-10-11T08:56:38.749Z,50.78
2022-10-11T08:59:11.428Z,49.71
2022-10-11T09:01:44.795Z,49.38
2022-10-11T09:04:15.969Z,48.42
2022-10-11T09:07:05.279Z,49.02
2022-10-11T09:09:49.767Z,49.11
2022-10-11T09:12:32.250Z,47.49
2022-10-11T09:15:15.773Z,47.57
2022-10-11T09:18:17.866Z,45.44
2022-10-11T09:20:53.220Z,45.06
2022-10-11T09:23:31.553Z,44.25
2022-10-11T09:26:27.943Z,43.05
2022-10-11T09:29:09.879Z,44.30
2022-10-11T09:31:36.496Z,42.91
2022-10-11T09:34:12.275Z,41.85
2022-10-11T09:36:54.604Z,41.51
2022-10-11T09:39:55.558Z,40.74
2022-10-11T09:42:22.350Z,39.94
2022-10-11T09:44:50.957Z,38.95
2022-10-11T09:47:29.362Z,39.37
2022-10-11T09:50:06.627Z,39.83
2022-10-11T09:52:34.268Z,41.01
2022-10-11T09:55:02.623Z,39.90
2022-10-11T09:57:35.965Z,39.43
2022-10-11T10:00:24.546Z,37.62
2022-10-11T10:02:56.731Z,37.71
2022-10-11T10:05:25.654Z,37.56
2022-10-11T10:08:05.239Z,37.54
2022-10-11T10:10:44.071Z,37.01
2022-10-11T10:13:22.689Z,37.69
2022-10-11T10:15:53.577Z,38.20
2022-10-11T10:18:48.972Z,37.33
2022-10-11T10:21:16.280Z,39.14
2022-10-11T10:23:43.462Z,37.87
2022-10-11T10:26:13.580Z,37.37
2022-10-11T10:29:01.490Z,37.72
2022-10-11T10:32:13.378Z,36.75
2022-10-11T10:35:06.671Z,35.13
2022-10-11T10:37:40.819Z,35.11
2022-10-11T10:40:14.384Z,35.80
2022-10-11T10:42:40.976Z,35.95
2022-10-11T10:45:17.431Z,35.36
2022-10-11T10:48:08.441Z,34.61
2022-10-11T10:50:55.948Z,35.15
2022-10-11T10:53:34.255Z,34.12
2022-10-11T10:56:25.908Z,33.10
2022-10-11T10:59:23.410Z,32.86
2022-10-11T11:02:21.475Z,33.38
2022-10-11T11:05:28.772Z,33.92
2022-10-11T11:08:26.839Z,33.62
2022-10-11T11:11:05.459Z,35.43
2022-10-11T11:14:04.296Z,33.09
2022-10-11T11:17:14.909Z,33.15
2022-10-11T11:20:01.180Z,32.63
2022-10-11T11:22:42.951Z,33.02
2022-10-11T11:25:25.332Z,33.36
2022-10-11T11:28:29.761Z,33.28
2022-10-11T11:31:53.588Z,36.59
2022-10-11T11:34:37.870Z,37.02
2022-10-11T11:37:33.233Z,37.19
2022-10-11T11:40:13.765Z,35.77
2022-10-11T11:42:54.130Z,38.97
2022-10-11T11:45:45.635Z,41.27
2022-10-11T11:48:18.733Z,42.94
2022-10-11T11:50:53.937Z,44.67
2022-10-11T11:53:40.980Z,45.85
2022-10-11T11:56:25.276Z,47.92
2022-10-11T11:58:59.574Z,47.91
2022-10-11T12:01:48.090Z,49.00
2022-10-11T12:04:31.773Z,49.95
2022-10-11T12:07:16.366Z,48.99
2022-10-11T12:09:50.303Z,49.63
2022-10-11T12:12:37.710Z,41.29
2022-10-11T12:15:26.119Z,37.24
2022-10-11T12:17:58.531Z,35.17
2022-10-11T12:20:29.937Z,38.27
2022-10-11T12:23:00.747Z,42.25
2022-10-11T12:25:27.220Z,44.58
2022-10-11T12:27:59.598Z,46.90
2022-10-11T12:30:44.413Z,48.15
2022-10-11T12:33:21.721Z,48.84
2022-10-11T12:35:54.198Z,49.62
2022-10-11T12:38:28.920Z,49.89
2022-10-11T12:41:10.837Z,48.12
2022-10-11T12:43:49.676Z,43.73
2022-10-11T12:46:28.394Z,43.76
2022-10-11T12:49:10.211Z,46.03
2022-10-11T12:51:44.435Z,47.48
2022-10-11T12:54:27.507Z,49.53
2022-10-11T12:57:02.268Z,52.27
2022-10-11T12:59:31.939Z,52.79
2022-10-11T13:01:59.941Z,52.19
2022-10-11T13:04:32.832Z,52.82
2022-10-11T13:07:06.924Z,54.00
2022-10-11T13:09:45.285Z,53.56
2022-10-11T13:12:19.510Z,54.24
2022-10-11T13:14:53.529Z,53.30
2022-10-11T13:17:25.455Z,53.28
2022-10-11T13:20:10.177Z,54.26
2022-10-11T13:22:39.925Z,54.61
2022-10-11T13:25:08.599Z,55.45
2022-10-11T13:27:37.886Z,55.64
2022-10-11T13:30:11.406Z,55.44
2022-10-11T13:32:38.206Z,55.99
2022-10-11T13:35:13.337Z,55.79
2022-10-11T13:37:46.961Z,55.60
2022-10-11T13:40:19.002Z,55.56
2022-10-11T13:42:48.703Z,55.94
2022-10-11T13:45:19.333Z,56.24
2022-10-11T13:47:47.327Z,56.72
2022-10-11T13:50:16.930Z,54.84
2022-10-11T13:52:57.606Z,56.50
2022-10-11T13:55:30.268Z,58.82
2022-10-11T13:57:59.695Z,58.53
2022-10-11T14:00:30.905Z,60.04
2022-10-11T14:03:02.320Z,58.83
2022-10-11T14:05:38.708Z,58.22
2022-10-11T14:08:27.770Z,57.11
2022-10-11T14:10:57.830Z,58.80
2022-10-11T14:13:36.550Z,59.11
2022-10-11T14:16:13.631Z,60.57
2022-10-11T14:19:02.004Z,60.00
2022-10-11T14:21:45.305Z,60.13
2022-10-11T14:24:12.551Z,60.53
2022-10-11T14:26:48.243Z,60.68
2022-10-11T14:30:06.388Z,59.50
2022-10-11T14:32:37.296Z,59.85
2022-10-11T14:35:04.569Z,59.18
2022-10-11T14:37:31.419Z,59.07
2022-10-11T14:39:58.948Z,58.87
2022-10-11T14:42:32.465Z,58.51
2022-10-11T14:44:58.954Z,60.09
2022-10-11T14:47:25.460Z,60.76
2022-10-11T14:49:51.958Z,62.57
2022-10-11T14:52:19.063Z,62.88
2022-10-11T14:54:46.037Z,63.55
2022-10-11T14:57:13.302Z,63.90
2022-10-11T14:59:40.075Z,63.96
2022-10-11T15:02:08.694Z,64.39
2022-10-11T15:04:36.481Z,65.25
2022-10-11T15:07:03.960Z,65.54
2022-10-11T15:09:30.619Z,65.99
2022-10-11T15:11:57.539Z,65.85
2022-10-11T15:14:25.411Z,65.38
2022-10-11T15:16:53.028Z,66.58
2022-10-11T15:19:25.635Z,66.68
2022-10-11T15:21:52.786Z,66.98
2022-10-11T15:24:22.245Z,67.78
2022-10-11T15:26:50.012Z,65.70
2022-10-11T15:29:21.874Z,66.39
2022-10-11T15:31:49.560Z,66.87
2022-10-11T15:34:17.089Z,66.49
2022-10-11T15:36:43.657Z,66.32
2022-10-11T15:39:34.288Z,65.37
2022-10-11T15:42:01.651Z,64.90
2022-10-11T15:44:28.579Z,65.01
2022-10-11T15:46:55.195Z,64.89
2022-10-11T15:49:22.353Z,63.80
2022-10-11T15:51:48.859Z,63.98
2022-10-11T15:54:15.814Z,63.67
2022-10-11T15:56:43.246Z,65.03
2022-10-11T15:59:11.654Z,65.49
2022-10-11T16:01:38.612Z,65.64
2022-10-11T16:04:05.353Z,65.83
2022-10-11T16:06:33.325Z,66.51
2022-10-11T16:09:00.283Z,67.20
2022-10-11T16:11:26.832Z,67.32
2022-10-11T16:13:53.560Z,67.24
2022-10-11T16:16:22.596Z,67.55
2022-10-11T16:18:52.978Z,67.96
2022-10-11T16:21:20.814Z,68.25
2022-10-11T16:23:47.429Z,68.46
2022-10-11T16:26:16.805Z,69.05
2022-10-11T16:28:43.619Z,69.38
2022-10-11T16:31:13.868Z,69.66
2022-10-11T16:33:45.828Z,70.02
2022-10-11T16:36:40.385Z,70.57
2022-10-11T16:39:16.415Z,71.19
2022-10-11T16:41:43.677Z,71.51
2022-10-11T16:44:15.337Z,71.77
2022-10-11T16:46:42.954Z,72.03
2022-10-11T16:49:09.608Z,72.97
2022-10-11T16:51:37.288Z,73.34
2022-10-11T16:54:03.956Z,73.83
2022-10-11T16:56:32.034Z,74.31
2022-10-11T16:59:00.805Z,74.69
2022-10-11T17:01:28.363Z,75.33
2022-10-11T17:03:55.807Z,75.32
2022-10-11T17:06:23.819Z,75.64
2022-10-11T17:08:50.434Z,76.35
2022-10-11T17:11:17.882Z,76.34
2022-10-11T17:13:45.424Z,76.94
2022-10-11T17:16:12.670Z,77.42
2022-10-11T17:18:39.311Z,77.04
2022-10-11T17:21:08.381Z,77.47
2022-10-11T17:23:35.536Z,77.74
2022-10-11T17:26:10.025Z,77.72
2022-10-11T17:28:37.966Z,78.13
2022-10-11T17:31:05.512Z,78.49
2022-10-11T17:33:32.278Z,78.87
2022-10-11T17:36:00.487Z,78.90
2022-10-11T17:38:28.220Z,79.64
2022-10-11T17:41:08.026Z,79.94
2022-10-11T17:43:35.093Z,80.50
2022-10-11T17:46:06.475Z,80.61
2022-10-11T17:48:37.147Z,80.68
2022-10-11T17:51:13.026Z,81.04
2022-10-11T17:53:40.017Z,81.21
2022-10-11T17:56:12.776Z,81.55
2022-10-11T17:58:39.593Z,81.15
2022-10-11T18:01:10.152Z,80.82
2022-10-11T18:03:37.451Z,81.34
2022-10-11T18:06:05.870Z,81.27
2022-10-11T18:08:40.008Z,81.68
2022-10-11T18:11:12.882Z,82.18
2022-10-11T18:13:42.871Z,81.88
2022-10-11T18:16:10.764Z,82.20
2022-10-11T18:18:37.951Z,82.47
2022-10-11T18:21:04.954Z,83.01
2022-10-11T18:23:32.620Z,83.45
2022-10-11T18:25:59.144Z,83.75
2022-10-11T18:28:25.667Z,83.62
2022-10-11T18:30:53.248Z,83.76
2022-10-11T18:33:19.776Z,83.76
2022-10-11T18:35:46.315Z,83.84
2022-10-11T18:38:12.818Z,83.84
2022-10-11T18:40:44.687Z,83.83
2022-10-11T18:43:13.453Z,83.80
2022-10-11T18:45:40.035Z,83.55
2022-10-11T18:48:08.660Z,83.47
2022-10-11T18:50:35.662Z,83.39
2022-10-11T18:53:02.329Z,83.67
2022-10-11T18:55:29.017Z,83.78
2022-10-11T18:57:55.557Z,83.86
2022-10-11T19:00:49.520Z,83.67
2022-10-11T19:03:08.770Z,83.87
2022-10-11T19:05:38.993Z,84.17
2022-10-11T19:08:05.763Z,83.87
2022-10-11T19:10:32.840Z,84.23
2022-10-11T19:12:59.517Z,84.49
2022-10-11T19:15:28.746Z,84.81
2022-10-11T19:17:55.584Z,85.04
2022-10-11T19:20:22.187Z,85.27
2022-10-11T19:22:48.734Z,85.80
2022-10-11T19:25:15.358Z,86.03
2022-10-11T19:27:41.910Z,86.45
2022-10-11T19:30:08.839Z,86.48
2022-10-11T19:32:35.345Z,86.58
2022-10-11T19:35:02.458Z,86.22
2022-10-11T19:37:29.149Z,85.93
2022-10-11T19:39:55.851Z,85.87
2022-10-11T19:42:22.760Z,86.31
2022-10-11T19:44:49.276Z,86.51
2022-10-11T19:47:16.232Z,86.69
2022-10-11T19:49:42.736Z,87.07
2022-10-11T19:52:09.592Z,86.78
2022-10-11T19:54:36.136Z,86.90
2022-10-11T19:57:02.784Z,86.94
2022-10-11T19:59:29.352Z,86.97
2022-10-11T20:01:55.891Z,87.12
2022-10-11T20:07:09.498Z,87.30
2022-10-11T20:09:36.882Z,87.52
2022-10-11T20:12:03.442Z,87.69
2022-10-11T20:14:29.992Z,87.80
2022-10-11T20:16:56.528Z,88.11
2022-10-11T20:19:27.875Z,88.35
2022-10-11T20:21:57.066Z,88.38
2022-10-11T20:24:23.650Z,88.36
2022-10-11T20:26:50.179Z,88.49
2022-10-11T20:29:17.114Z,88.66
2022-10-11T20:31:43.602Z,88.77
2022-10-11T20:34:10.927Z,88.81
2022-10-11T20:36:37.620Z,88.71
2022-10-11T20:39:05.263Z,88.80
2022-10-11T20:41:37.278Z,88.89
2022-10-11T20:44:04.911Z,88.96
2022-10-11T20:46:33.855Z,89.04
2022-10-11T20:49:02.862Z,89.14
2022-10-11T20:51:31.390Z,89.32
2022-10-11T20:53:59.214Z,89.52
2022-10-11T20:56:26.762Z,89.60
2022-10-11T20:58:55.443Z,89.80
2022-10-11T21:01:31.518Z,89.76
2022-10-11T21:04:00.021Z,89.76
2022-10-11T21:06:27.290Z,89.63
2022-10-11T21:08:58.987Z,89.80
2022-10-11T21:11:27.116Z,90.06
2022-10-11T21:13:57.872Z,90.06
2022-10-11T21:16:24.938Z,90.49
